Time;durP1;ratioP1;P1;durP2;ratioP2;P2;SDS_P1;SDS_P2;PMS_P1;PMS_P2;Temp;Humidity;BMP_temperature;BMP_pressure;BME280_temperature;BME280_humidity;BME280_pressure;Samples;Min_cycle;Max_cycle;Signal;HPM_P1;HPM_P2
2021/03/17 00:00:22;;;;;;;12.80;7.50;;;;;;;0.78;100.00;96285.84;1028058;28;20033;-51
2021/03/17 00:00:53;;;;;;;11.25;7.00;;;;;;;0.78;100.00;96290.16;1028110;28;20027;-51
2021/03/17 00:01:24;;;;;;;13.27;6.90;;;;;;;0.79;100.00;96286.72;1028097;28;20398;-51
2021/03/17 00:01:55;;;;;;;9.10;6.43;;;;;;;0.80;100.00;96280.66;1024131;29;20361;-50
2021/03/17 00:02:25;;;;;;;11.32;7.25;;;;;;;0.80;100.00;96285.81;1020137;29;20020;-50
2021/03/17 00:02:56;;;;;;;11.20;7.07;;;;;;;0.80;100.00;96287.53;1024090;29;20078;-50
2021/03/17 00:03:27;;;;;;;11.25;7.05;;;;;;;0.81;100.00;96284.94;1024015;28;20409;-52
2021/03/17 00:03:58;;;;;;;11.10;6.70;;;;;;;0.80;100.00;96283.22;1020051;29;20024;-50
2021/03/17 00:04:28;;;;;;;11.13;6.90;;;;;;;0.82;100.00;96280.59;1020100;29;20553;-51
2021/03/17 00:04:59;;;;;;;11.23;7.07;;;;;;;0.81;100.00;96282.34;1020306;29;20050;-52
2021/03/17 00:05:31;;;;;;;13.95;7.57;;;;;;;0.83;100.00;96278.00;1020147;28;20055;-51
2021/03/17 00:06:02;;;;;;;10.43;6.93;;;;;;;0.82;100.00;96281.44;1024042;28;20019;-50
2021/03/17 00:06:33;;;;;;;11.95;7.88;;;;;;;0.81;100.00;96282.34;1020223;28;20830;-52
2021/03/17 00:07:04;;;;;;;12.82;6.95;;;;;;;0.83;100.00;96282.31;1028044;28;20413;-51
2021/03/17 00:07:35;;;;;;;17.35;7.43;;;;;;;0.79;100.00;96281.56;1024123;28;20132;-50
2021/03/17 00:08:06;;;;;;;11.95;8.40;;;;;;;0.78;100.00;96272.09;1024014;28;20078;-50
2021/03/17 00:08:36;;;;;;;13.40;7.05;;;;;;;0.75;100.00;96275.63;1024046;29;20043;-51
2021/03/17 00:09:07;;;;;;;9.57;6.88;;;;;;;0.77;100.00;96278.16;1028185;28;20254;-51
2021/03/17 00:09:38;;;;;;;13.07;7.70;;;;;;;0.77;100.00;96279.00;1024004;28;20034;-50
2021/03/17 00:10:10;;;;;;;12.02;7.15;;;;;;;0.78;100.00;96280.69;1024141;28;20042;-51
2021/03/17 00:10:42;;;;;;;13.10;7.32;;;;;;;0.76;100.00;96276.47;1024025;28;20250;-51
2021/03/17 00:11:13;;;;;;;9.52;6.65;;;;;;;0.78;100.00;96277.25;1020165;29;20266;-50
2021/03/17 00:11:44;;;;;;;13.18;7.38;;;;;;;0.76;100.00;96273.88;1024113;28;20274;-51
2021/03/17 00:12:14;;;;;;;14.00;7.03;;;;;;;0.73;100.00;96279.97;1020185;28;20023;-50
2021/03/17 00:12:47;;;;;;;10.77;7.18;;;;;;;0.77;100.00;96279.00;1024004;29;20023;-51
2021/03/17 00:13:20;;;;;;;12.10;7.28;;;;;;;0.76;100.00;96271.31;1023974;29;20097;-51
2021/03/17 00:13:52;;;;;;;12.15;7.38;;;;;;;0.78;100.00;96274.69;1023847;29;20259;-51
2021/03/17 00:14:22;;;;;;;13.98;7.65;;;;;;;0.83;100.00;96277.16;1027993;28;20668;-50
2021/03/17 00:14:53;;;;;;;10.95;7.38;;;;;;;0.78;100.00;96278.09;1016153;29;20252;-50
2021/03/17 00:15:27;;;;;;;13.57;8.02;;;;;;;0.77;100.00;96273.00;1024048;29;20397;-51
2021/03/17 00:15:58;;;;;;;11.88;7.32;;;;;;;0.73;100.00;96271.38;1016152;29;20024;-52
2021/03/17 00:16:29;;;;;;;11.20;6.88;;;;;;;0.76;100.00;96276.47;1019872;29;20346;-51
2021/03/17 00:17:00;;;;;;;11.05;6.47;;;;;;;0.74;100.00;96270.50;1027280;28;20258;-51
2021/03/17 00:17:31;;;;;;;16.42;6.95;;;;;;;0.74;100.00;96270.50;1019905;29;20495;-51
2021/03/17 00:18:01;;;;;;;11.80;7.78;;;;;;;0.74;100.00;96271.34;1028178;28;20026;-51
2021/03/17 00:18:32;;;;;;;13.25;7.15;;;;;;;0.75;100.00;96269.59;1024001;28;20060;-51
2021/03/17 00:19:03;;;;;;;14.23;7.85;;;;;;;0.78;100.00;96272.09;1028026;28;20029;-50
2021/03/17 00:19:34;;;;;;;11.05;7.57;;;;;;;0.75;100.00;96269.59;1020165;29;20024;-50
2021/03/17 00:20:08;;;;;;;12.40;7.78;;;;;;;0.70;100.00;96266.31;1020135;29;20020;-50
2021/03/17 00:20:39;;;;;;;10.93;7.38;;;;;;;0.73;100.00;96268.78;1012185;29;20115;-51
2021/03/17 00:21:10;;;;;;;14.38;7.68;;;;;;;0.75;100.00;96267.00;1024010;28;20326;-51
2021/03/17 00:21:40;;;;;;;11.90;7.20;;;;;;;0.74;100.00;96263.59;1024018;29;20027;-51
2021/03/17 00:22:11;;;;;;;11.75;8.10;;;;;;;0.68;100.00;96274.09;1020091;29;20335;-51
2021/03/17 00:22:42;;;;;;;11.10;7.55;;;;;;;0.70;100.00;96267.16;1027850;28;20015;-51
2021/03/17 00:23:13;;;;;;;11.98;7.55;;;;;;;0.71;100.00;96268.88;1023990;29;20027;-50
2021/03/17 00:23:43;;;;;;;15.20;7.22;;;;;;;0.71;100.00;96268.00;1019869;29;20023;-51
2021/03/17 00:24:14;;;;;;;12.60;7.25;;;;;;;0.71;100.00;96265.41;1024035;29;20031;-52
2021/03/17 00:24:45;;;;;;;13.50;8.10;;;;;;;0.71;100.00;96265.41;1024007;29;20023;-50
2021/03/17 00:25:16;;;;;;;12.60;7.40;;;;;;;0.71;100.00;96268.88;1016194;29;20032;-51
2021/03/17 00:25:47;;;;;;;10.63;7.65;;;;;;;0.69;100.00;96270.59;1020007;29;20027;-50
2021/03/17 00:26:17;;;;;;;15.23;7.70;;;;;;;0.70;100.00;96271.47;1020061;29;20260;-50
2021/03/17 00:26:48;;;;;;;15.27;7.45;;;;;;;0.74;100.00;96262.75;1023964;28;20025;-51
2021/03/17 00:27:19;;;;;;;13.25;7.70;;;;;;;0.76;100.00;96266.16;1016161;29;20020;-51
2021/03/17 00:27:49;;;;;;;12.00;7.72;;;;;;;0.72;100.00;96267.13;1028010;28;20018;-51
2021/03/17 00:28:20;;;;;;;13.85;8.02;;;;;;;0.69;100.00;96265.44;1020132;29;20027;-51
2021/03/17 00:28:51;;;;;;;11.32;7.82;;;;;;;0.70;100.00;96267.16;1020026;29;20405;-50
2021/03/17 00:29:21;;;;;;;11.52;8.02;;;;;;;0.72;100.00;96267.13;1024034;28;20099;-51
2021/03/17 00:29:52;;;;;;;18.55;8.75;;;;;;;0.68;100.00;96262.94;1027984;28;20014;-51
2021/03/17 00:30:23;;;;;;;13.57;8.82;;;;;;;0.70;100.00;96266.31;1024048;29;20110;-51
2021/03/17 00:30:54;;;;;;;13.00;8.35;;;;;;;0.72;100.00;96259.38;1020019;29;20397;-51
2021/03/17 00:31:25;;;;;;;11.50;8.32;;;;;;;0.72;100.00;96264.53;1019980;29;20278;-51
2021/03/17 00:31:56;;;;;;;13.13;8.30;;;;;;;0.73;100.00;96258.47;1024002;29;20062;-51
2021/03/17 00:32:27;;;;;;;12.05;8.25;;;;;;;0.72;100.00;96265.38;1023865;29;20429;-50
2021/03/17 00:32:59;;;;;;;14.30;8.32;;;;;;;0.73;100.00;96261.06;1020087;29;20107;-52
2021/03/17 00:33:30;;;;;;;13.30;7.80;;;;;;;0.73;100.00;96261.94;1023778;29;20059;-50
2021/03/17 00:34:01;;;;;;;11.93;8.40;;;;;;;0.72;100.00;96261.97;1016112;28;20685;-51
2021/03/17 00:34:31;;;;;;;12.80;8.02;;;;;;;0.71;100.00;96255.09;1024034;29;20090;-52
2021/03/17 00:35:03;;;;;;;11.40;8.32;;;;;;;0.72;100.00;96265.38;1024030;28;20058;-51
2021/03/17 00:35:33;;;;;;;14.85;8.75;;;;;;;0.72;100.00;96259.38;1027866;28;20074;-51
2021/03/17 00:36:04;;;;;;;12.50;8.27;;;;;;;0.73;100.00;96266.22;1020149;29;20294;-51
2021/03/17 00:36:35;;;;;;;12.50;8.52;;;;;;;0.72;100.00;96257.66;1020071;29;20101;-51
2021/03/17 00:37:06;;;;;;;14.57;8.65;;;;;;;0.74;100.00;96262.75;1016214;29;20280;-51
2021/03/17 00:37:36;;;;;;;13.00;8.85;;;;;;;0.73;100.00;96261.06;1023839;29;20024;-52
2021/03/17 00:38:07;;;;;;;11.80;8.80;;;;;;;0.75;100.00;96254.13;1028016;28;20025;-49
2021/03/17 00:38:38;;;;;;;12.27;8.30;;;;;;;0.73;100.00;96259.34;1020082;29;20512;-51
2021/03/17 00:39:09;;;;;;;12.77;7.78;;;;;;;0.75;100.00;96260.16;1028032;28;20113;-51
2021/03/17 00:39:39;;;;;;;13.98;8.00;;;;;;;0.75;100.00;96261.84;1021029;28;20437;-52
2021/03/17 00:40:11;;;;;;;13.48;8.07;;;;;;;0.78;100.00;96259.22;1027232;29;20509;-52
2021/03/17 00:40:42;;;;;;;11.10;7.93;;;;;;;0.78;100.00;96262.63;1022935;29;20168;-52
2021/03/17 00:41:13;;;;;;;15.35;8.65;;;;;;;0.75;100.00;96256.69;1023236;29;20266;-51
2021/03/17 00:41:43;;;;;;;12.60;8.32;;;;;;;0.75;100.00;96255.00;1023118;29;20153;-52
2021/03/17 00:42:14;;;;;;;12.15;8.20;;;;;;;0.79;100.00;96255.75;1019075;29;20020;-52
2021/03/17 00:42:45;;;;;;;14.13;8.93;;;;;;;0.74;100.00;96249.88;1027580;29;20493;-52
2021/03/17 00:43:15;;;;;;;12.93;7.90;;;;;;;0.76;100.00;96254.09;1027631;28;20044;-52
2021/03/17 00:43:46;;;;;;;15.82;8.13;;;;;;;0.78;100.00;96254.06;1027561;28;20019;-52
2021/03/17 00:44:17;;;;;;;15.77;8.48;;;;;;;0.80;100.00;96248.84;1023601;28;20088;-52
2021/03/17 00:44:48;;;;;;;13.52;8.30;;;;;;;0.78;100.00;96248.91;1022335;29;20450;-52
2021/03/17 00:45:18;;;;;;;12.48;7.90;;;;;;;0.78;100.00;96251.47;1026802;28;20163;-52
2021/03/17 00:45:49;;;;;;;13.23;8.25;;;;;;;0.77;100.00;96249.81;1020171;29;20007;-50
2021/03/17 00:46:20;;;;;;;11.00;8.77;;;;;;;0.73;100.00;96259.34;1027801;28;20527;-49
2021/03/17 00:46:50;;;;;;;13.32;7.97;;;;;;;0.75;100.00;96249.84;1023969;29;20388;-50
2021/03/17 00:47:21;;;;;;;13.35;8.32;;;;;;;0.75;100.00;96249.84;1024064;28;20419;-51
2021/03/17 00:47:52;;;;;;;12.50;8.52;;;;;;;0.73;100.00;96250.75;1028088;28;20098;-50
2021/03/17 00:48:22;;;;;;;12.50;8.88;;;;;;;0.70;100.00;96253.41;1027967;28;20357;-50
2021/03/17 00:48:53;;;;;;;14.98;9.02;;;;;;;0.75;100.00;96246.38;1032002;28;20037;-51
2021/03/17 00:49:24;;;;;;;13.45;8.52;;;;;;;0.72;100.00;96243.91;1023942;29;20095;-50
2021/03/17 00:49:55;;;;;;;10.48;8.40;;;;;;;0.71;100.00;96249.94;1019923;29;20023;-51
2021/03/17 00:50:25;;;;;;;16.23;8.88;;;;;;;0.72;100.00;96254.22;1023932;28;20015;-51
2021/03/17 00:50:56;;;;;;;15.05;8.77;;;;;;;0.70;100.00;96253.41;1023957;28;20058;-51
2021/03/17 00:51:27;;;;;;;14.73;9.13;;;;;;;0.70;100.00;96249.09;1023967;28;20011;-51
2021/03/17 00:51:58;;;;;;;15.90;9.65;;;;;;;0.70;100.00;96254.25;1024078;28;20405;-51
2021/03/17 00:52:29;;;;;;;12.52;8.27;;;;;;;0.73;100.00;96253.31;1023777;29;20274;-50
2021/03/17 00:53:00;;;;;;;15.48;9.15;;;;;;;0.75;100.00;96247.25;1024063;28;20051;-51
2021/03/17 00:53:30;;;;;;;13.45;8.50;;;;;;;0.73;100.00;96243.88;1031709;28;20073;-52
2021/03/17 00:54:01;;;;;;;12.55;8.50;;;;;;;0.71;100.00;96248.22;1023891;28;20015;-51
2021/03/17 00:54:32;;;;;;;13.52;8.02;;;;;;;0.71;100.00;96242.22;1023777;28;20034;-51
2021/03/17 00:55:04;;;;;;;12.38;8.52;;;;;;;0.70;100.00;96248.25;1024055;28;20053;-51
2021/03/17 00:55:34;;;;;;;12.15;8.82;;;;;;;0.72;100.00;96255.06;1024338;28;20354;-51
2021/03/17 00:56:05;;;;;;;12.60;8.55;;;;;;;0.70;100.00;96246.53;1023878;29;20318;-51
2021/03/17 00:56:36;;;;;;;13.13;8.35;;;;;;;0.75;100.00;96243.81;1020628;28;20024;-51
2021/03/17 00:57:07;;;;;;;12.68;8.57;;;;;;;0.77;100.00;96245.47;1019880;29;20163;-51
2021/03/17 00:57:39;;;;;;;14.20;8.80;;;;;;;0.75;100.00;96249.84;1020015;29;20074;-51
2021/03/17 00:58:09;;;;;;;14.23;9.02;;;;;;;0.78;100.00;96244.56;1023967;29;20011;-51
2021/03/17 00:58:40;;;;;;;14.55;9.38;;;;;;;0.76;100.00;96237.78;1023780;29;20250;-51
2021/03/17 00:59:11;;;;;;;14.38;9.60;;;;;;;0.74;100.00;96242.97;1020010;28;20019;-50
2021/03/17 00:59:42;;;;;;;12.80;8.77;;;;;;;0.75;100.00;96239.53;1027868;28;20672;-51
2021/03/17 01:00:14;;;;;;;15.13;9.00;;;;;;;0.74;100.00;96244.72;1027917;28;20109;-51
2021/03/17 01:00:44;;;;;;;11.88;8.38;;;;;;;0.75;100.00;96242.09;1023794;29;20090;-51
2021/03/17 01:01:16;;;;;;;16.45;7.90;;;;;;;0.74;100.00;96236.97;1023773;28;20831;-51
2021/03/17 01:01:47;;;;;;;14.60;9.27;;;;;;;0.78;100.00;96244.56;1019961;29;20024;-51
2021/03/17 01:02:18;;;;;;;14.30;9.20;;;;;;;0.75;100.00;96243.81;1027840;28;20740;-49
2021/03/17 01:02:49;;;;;;;15.18;9.57;;;;;;;0.76;100.00;96236.03;1023791;28;20536;-51
2021/03/17 01:03:21;;;;;;;18.75;9.98;;;;;;;0.75;100.00;96239.53;1024099;29;20645;-51
2021/03/17 01:03:51;;;;;;;13.63;9.20;;;;;;;0.73;100.00;96237.84;1023721;28;20259;-52
2021/03/17 01:04:22;;;;;;;13.07;9.18;;;;;;;0.73;100.00;96240.44;1019933;29;20239;-51
2021/03/17 01:04:53;;;;;;;11.32;8.70;;;;;;;0.76;100.00;96240.34;1019827;29;20482;-50
2021/03/17 01:05:24;;;;;;;14.77;9.05;;;;;;;0.72;100.00;96234.44;1016049;29;20047;-51
2021/03/17 01:05:54;;;;;;;17.08;10.13;;;;;;;0.70;100.00;96235.38;1019898;29;20022;-51
2021/03/17 01:06:25;;;;;;;11.60;9.15;;;;;;;0.69;100.00;96234.50;1027991;28;20022;-50
2021/03/17 01:06:56;;;;;;;14.38;9.23;;;;;;;0.55;100.00;96209.09;1015846;29;20035;-51
2021/03/17 01:07:29;;;;;;;12.63;8.75;;;;;;;0.70;100.00;96235.38;1023881;28;20011;-51
2021/03/17 01:07:59;;;;;;;15.80;9.88;;;;;;;0.73;100.00;96232.69;1027876;28;20018;-51
2021/03/17 01:08:30;;;;;;;16.70;10.00;;;;;;;0.71;100.00;96231.88;1016076;29;20786;-52
2021/03/17 01:09:01;;;;;;;16.80;9.88;;;;;;;0.71;100.00;96231.88;1027805;28;20102;-51
2021/03/17 01:09:32;;;;;;;14.35;9.15;;;;;;;0.73;100.00;96230.09;1027839;28;20540;-51
2021/03/17 01:10:14;;;;;;;12.38;9.32;;;;;;;0.73;100.00;96232.69;1019948;29;20027;-51
2021/03/17 01:10:46;;;;;;;13.60;9.43;;;;;;;0.71;100.00;96227.59;1027875;28;20022;-51
2021/03/17 01:11:16;;;;;;;14.27;9.82;;;;;;;0.68;100.00;96232.00;1023750;29;20262;-50
2021/03/17 01:11:47;;;;;;;15.80;9.88;;;;;;;0.68;100.00;96225.09;1019936;29;20407;-50
2021/03/17 01:12:18;;;;;;;16.63;11.02;;;;;;;0.67;100.00;96219.97;1023749;29;20049;-50
2021/03/17 01:12:48;;;;;;;18.00;11.23;;;;;;;0.66;100.00;96224.28;1023860;29;20019;-51
2021/03/17 01:13:19;;;;;;;13.30;9.93;;;;;;;0.66;100.00;96229.44;1019727;29;20058;-50
2021/03/17 01:13:50;;;;;;;12.38;9.68;;;;;;;0.64;100.00;96225.19;1016007;29;20510;-50
2021/03/17 01:14:21;;;;;;;16.63;10.23;;;;;;;0.65;100.00;96226.91;1023827;28;20081;-51
2021/03/17 01:14:52;;;;;;;14.13;10.52;;;;;;;0.65;100.00;96221.75;1012051;29;20754;-51
2021/03/17 01:15:22;;;;;;;13.13;9.68;;;;;;;0.69;100.00;96228.50;1019785;29;20104;-51
2021/03/17 01:15:53;;;;;;;18.23;10.55;;;;;;;0.66;100.00;96228.59;1023874;29;20481;-51
2021/03/17 01:16:24;;;;;;;17.02;11.18;;;;;;;0.65;100.00;96227.75;1012167;29;20028;-51
2021/03/17 01:16:55;;;;;;;13.95;9.95;;;;;;;0.63;100.00;96219.19;1027770;28;20030;-50
2021/03/17 01:17:25;;;;;;;13.25;9.52;;;;;;;0.66;100.00;96229.44;1027798;28;20094;-50
2021/03/17 01:17:56;;;;;;;16.40;11.57;;;;;;;0.63;100.00;96226.94;1023887;28;20015;-51
2021/03/17 01:18:27;;;;;;;13.77;10.68;;;;;;;0.64;100.00;96226.06;1023827;28;20019;-51
2021/03/17 01:18:58;;;;;;;17.02;10.95;;;;;;;0.63;100.00;96229.53;1027831;28;20022;-50
2021/03/17 01:19:29;;;;;;;15.07;9.80;;;;;;;0.66;100.00;96218.28;1023785;28;20031;-52
2021/03/17 01:20:00;;;;;;;17.23;11.43;;;;;;;0.59;100.00;96215.03;1027833;28;20019;-51
2021/03/17 01:20:31;;;;;;;14.45;10.80;;;;;;;0.62;100.00;96220.09;1023676;28;20706;-52
2021/03/17 01:21:02;;;;;;;16.05;11.07;;;;;;;0.61;100.00;96215.81;1023867;29;20114;-51
2021/03/17 01:21:33;;;;;;;17.55;11.57;;;;;;;0.61;100.00;96215.00;1023658;28;20341;-50
2021/03/17 01:22:04;;;;;;;18.27;10.77;;;;;;;0.63;100.00;96221.78;1019896;28;20321;-51
2021/03/17 01:22:35;;;;;;;15.50;10.57;;;;;;;0.63;100.00;96218.38;1023757;28;20266;-50
2021/03/17 01:23:06;;;;;;;15.55;10.65;;;;;;;0.62;100.00;96224.41;1031833;28;20253;-51
2021/03/17 01:23:37;;;;;;;13.68;11.57;;;;;;;0.64;100.00;96222.63;1027424;28;20096;-50
2021/03/17 01:24:08;;;;;;;16.92;10.48;;;;;;;0.58;100.00;96216.75;1023773;29;20370;-50
2021/03/17 01:24:39;;;;;;;17.38;11.82;;;;;;;0.58;100.00;96214.19;1023830;29;20042;-52
2021/03/17 01:25:12;;;;;;;15.93;10.73;;;;;;;0.56;100.00;96204.78;1023880;29;20346;-50
2021/03/17 01:25:44;;;;;;;15.38;10.05;;;;;;;0.61;100.00;96220.97;1019715;29;20020;-51
2021/03/17 01:26:15;;;;;;;14.65;10.52;;;;;;;0.60;100.00;96214.13;1015930;29;20347;-50
2021/03/17 01:26:46;;;;;;;13.20;10.80;;;;;;;0.66;100.00;96216.56;1027690;28;20259;-51
2021/03/17 01:27:16;;;;;;;17.02;10.98;;;;;;;0.68;100.00;96219.09;1027771;28;20417;-51
2021/03/17 01:27:47;;;;;;;15.35;10.07;;;;;;;0.67;100.00;96218.22;1023750;29;20098;-51
2021/03/17 01:28:18;;;;;;;15.85;10.82;;;;;;;0.66;100.00;96218.28;1019741;28;20063;-50
2021/03/17 01:28:49;;;;;;;15.80;10.82;;;;;;;0.65;100.00;96212.28;1031716;28;20121;-51
2021/03/17 01:29:19;;;;;;;13.73;10.10;;;;;;;0.65;100.00;96206.28;1027786;28;20512;-49
2021/03/17 01:29:50;;;;;;;16.05;10.85;;;;;;;0.62;100.00;96217.53;1027644;28;20019;-50
2021/03/17 01:30:25;;;;;;;16.70;10.73;;;;;;;0.62;100.00;96212.38;1023808;29;20023;-49
2021/03/17 01:30:57;;;;;;;13.95;10.45;;;;;;;0.61;100.00;96209.84;1019802;29;20055;-50
2021/03/17 01:31:28;;;;;;;16.02;10.20;;;;;;;0.56;100.00;96210.81;1019813;29;20279;-52
2021/03/17 01:31:58;;;;;;;14.15;10.23;;;;;;;0.60;100.00;96210.69;1023779;28;20270;-50
2021/03/17 01:32:29;;;;;;;13.18;9.70;;;;;;;0.58;100.00;96211.59;1019846;29;20040;-50
2021/03/17 01:33:00;;;;;;;14.80;11.23;;;;;;;0.60;100.00;96216.69;1023815;29;20129;-50
2021/03/17 01:33:31;;;;;;;14.70;11.00;;;;;;;0.62;100.00;96207.22;1023580;29;20114;-51
2021/03/17 01:34:01;;;;;;;14.85;10.73;;;;;;;0.62;100.00;96211.50;1023559;29;20058;-51
2021/03/17 01:34:32;;;;;;;15.73;11.40;;;;;;;0.62;100.00;96203.78;1027797;28;20034;-50
2021/03/17 01:35:14;;;;;;;14.40;10.73;;;;;;;0.65;100.00;96207.13;1023798;28;20461;-50
2021/03/17 01:35:47;;;;;;;15.82;11.82;;;;;;;0.62;100.00;96211.50;1019978;28;20434;-50
2021/03/17 01:36:18;;;;;;;19.50;11.18;;;;;;;0.63;100.00;96210.63;1019721;29;20295;-51
2021/03/17 01:36:48;;;;;;;14.80;11.32;;;;;;;0.64;100.00;96205.44;1023660;29;20411;-51
2021/03/17 01:37:19;;;;;;;15.93;11.45;;;;;;;0.58;100.00;96210.75;1027674;28;20025;-50
2021/03/17 01:37:50;;;;;;;16.63;11.73;;;;;;;0.61;100.00;96202.94;1027721;28;20423;-51
2021/03/17 01:38:21;;;;;;;14.77;11.07;;;;;;;0.66;100.00;96197.66;1023700;28;20062;-49
2021/03/17 01:38:52;;;;;;;15.40;11.55;;;;;;;0.66;100.00;96211.41;1019870;28;20068;-51
2021/03/17 01:39:23;;;;;;;14.88;10.73;;;;;;;0.63;100.00;96208.06;1027671;28;20262;-51
2021/03/17 01:39:54;;;;;;;15.77;11.15;;;;;;;0.57;100.00;96207.31;1019786;28;20140;-50
2021/03/17 01:40:26;;;;;;;14.40;11.40;;;;;;;0.56;100.00;96197.03;1023630;28;20067;-51
2021/03/17 01:40:57;;;;;;;15.82;11.50;;;;;;;0.57;100.00;96199.59;1023747;28;20020;-50
2021/03/17 01:41:28;;;;;;;17.15;10.38;;;;;;;0.61;100.00;96205.50;1019679;29;20346;-52
2021/03/17 01:41:59;;;;;;;16.70;10.85;;;;;;;0.52;100.00;96198.03;1019852;29;20477;-51
2021/03/17 01:42:29;;;;;;;15.82;11.50;;;;;;;0.56;100.00;96199.63;1019646;29;20051;-50
2021/03/17 01:43:00;;;;;;;18.02;11.07;;;;;;;0.58;100.00;96200.44;1023691;28;20023;-51
2021/03/17 01:43:31;;;;;;;15.63;10.80;;;;;;;0.58;100.00;96200.44;1019663;29;20516;-50
2021/03/17 01:44:03;;;;;;;13.95;10.48;;;;;;;0.60;100.00;96203.81;1023656;29;20034;-50
2021/03/17 01:44:33;;;;;;;14.55;11.13;;;;;;;0.60;100.00;96208.97;1019696;29;20032;-51
2021/03/17 01:45:13;;;;;;;16.90;11.25;;;;;;;0.61;100.00;96202.09;1023629;29;20267;-50
2021/03/17 01:45:44;;;;;;;17.27;11.25;;;;;;;0.57;100.00;96199.59;1027833;28;20062;-51
2021/03/17 01:46:15;;;;;;;17.23;11.27;;;;;;;0.58;100.00;96205.59;1019821;29;20466;-50
2021/03/17 01:46:46;;;;;;;12.82;10.68;;;;;;;0.60;100.00;96206.38;1023559;28;20269;-51
2021/03/17 01:47:16;;;;;;;14.73;10.85;;;;;;;0.60;100.00;96202.97;1023751;29;20023;-50
2021/03/17 01:47:47;;;;;;;12.13;10.48;;;;;;;0.62;100.00;96202.06;1023795;28;20118;-50
2021/03/17 01:48:18;;;;;;;17.00;12.10;;;;;;;0.61;100.00;96202.09;1019770;29;20024;-50
2021/03/17 01:48:49;;;;;;;14.48;11.00;;;;;;;0.61;100.00;96199.53;1019692;29;20251;-52
2021/03/17 01:49:20;;;;;;;15.60;11.27;;;;;;;0.55;100.00;96198.78;1019723;29;20082;-51
2021/03/17 01:49:50;;;;;;;17.35;12.35;;;;;;;0.54;100.00;96203.97;1027708;28;20031;-50
2021/03/17 01:50:27;;;;;;;14.35;11.18;;;;;;;0.58;100.00;96197.84;1023699;29;20030;-50
2021/03/17 01:50:58;;;;;;;16.52;12.20;;;;;;;0.56;100.00;96197.91;1031645;28;20018;-50
2021/03/17 01:51:29;;;;;;;14.82;10.70;;;;;;;0.60;100.00;96202.97;1027793;28;20336;-51
2021/03/17 01:52:00;;;;;;;15.23;11.10;;;;;;;0.57;100.00;96198.75;1015819;29;20753;-50
2021/03/17 01:52:31;;;;;;;13.82;10.23;;;;;;;0.57;100.00;96202.16;1023633;28;20024;-50
2021/03/17 01:53:13;;;;;;;12.65;10.68;;;;;;;0.61;100.00;96199.53;1027570;28;20298;-51
2021/03/17 01:53:44;;;;;;;12.85;10.48;;;;;;;0.62;100.00;96196.03;1023533;29;20027;-50
2021/03/17 01:54:15;;;;;;;14.82;11.75;;;;;;;0.59;100.00;96196.97;1035744;28;20265;-51
2021/03/17 01:54:45;;;;;;;15.60;11.65;;;;;;;0.56;100.00;96190.19;1023527;29;20023;-51
2021/03/17 01:55:17;;;;;;;14.00;10.93;;;;;;;0.60;100.00;96198.66;1023694;29;20263;-51
2021/03/17 01:55:48;;;;;;;15.65;11.48;;;;;;;0.60;100.00;96197.81;1019728;29;20460;-51
2021/03/17 01:56:19;;;;;;;14.07;11.25;;;;;;;0.58;100.00;96195.28;1019834;29;20339;-51
2021/03/17 01:56:50;;;;;;;13.43;10.77;;;;;;;0.53;100.00;96190.25;1023577;28;20031;-51
2021/03/17 01:57:21;;;;;;;17.30;11.70;;;;;;;0.54;100.00;96197.09;1027554;28;20030;-49
2021/03/17 01:57:52;;;;;;;19.20;11.13;;;;;;;0.54;100.00;96191.09;1023666;29;20270;-51
2021/03/17 01:58:23;;;;;;;14.50;11.32;;;;;;;0.55;100.00;96196.22;1023715;28;20483;-52
2021/03/17 01:58:55;;;;;;;13.82;10.90;;;;;;;0.51;100.00;96194.59;1023625;28;20047;-52
2021/03/17 01:59:26;;;;;;;14.85;11.23;;;;;;;0.52;100.00;96192.88;1023662;28;20259;-50
2021/03/17 01:59:57;;;;;;;14.60;10.73;;;;;;;0.54;100.00;96194.50;1019780;29;20247;-51
2021/03/17 02:00:27;;;;;;;13.77;10.95;;;;;;;0.54;100.00;96197.09;1023732;29;20362;-51
2021/03/17 02:00:58;;;;;;;13.93;11.80;;;;;;;0.52;100.00;96196.28;1019744;29;20026;-50
2021/03/17 02:01:29;;;;;;;15.30;12.43;;;;;;;0.53;100.00;96197.16;1023523;29;20035;-51
2021/03/17 02:02:00;;;;;;;15.90;12.73;;;;;;;0.54;100.00;96193.66;1019711;29;20043;-51
2021/03/17 02:02:31;;;;;;;14.38;11.77;;;;;;;0.55;100.00;96196.22;1023621;29;20484;-51
2021/03/17 02:03:01;;;;;;;13.02;10.68;;;;;;;0.53;100.00;96189.41;1031608;28;20415;-51
2021/03/17 02:03:32;;;;;;;14.93;12.00;;;;;;;0.52;100.00;96193.69;1019617;29;20095;-52
2021/03/17 02:04:04;;;;;;;13.30;11.25;;;;;;;0.52;100.00;96192.88;1023651;29;20023;-51
2021/03/17 02:04:35;;;;;;;14.45;11.13;;;;;;;0.50;100.00;96187.75;1027670;28;20078;-51
2021/03/17 02:05:09;;;;;;;14.48;11.40;;;;;;;0.53;100.00;96195.41;1019646;29;20264;-50
2021/03/17 02:05:42;;;;;;;16.08;12.45;;;;;;;0.56;100.00;96194.47;1015763;29;20020;-51
2021/03/17 02:06:13;;;;;;;15.43;12.02;;;;;;;0.54;100.00;96189.34;1019674;29;20374;-52
2021/03/17 02:06:44;;;;;;;15.38;11.98;;;;;;;0.50;100.00;96186.91;1019583;28;20788;-49
2021/03/17 02:07:15;;;;;;;16.15;11.65;;;;;;;0.54;100.00;96189.34;1027564;28;20073;-51
2021/03/17 02:07:46;;;;;;;13.68;10.98;;;;;;;0.54;100.00;96189.34;1023745;28;20818;-50
2021/03/17 02:08:19;;;;;;;14.65;10.73;;;;;;;0.56;100.00;96186.72;1015968;29;20259;-52
2021/03/17 02:08:49;;;;;;;12.77;11.27;;;;;;;0.57;100.00;96184.13;1027609;28;20022;-51
2021/03/17 02:09:20;;;;;;;13.15;11.63;;;;;;;0.58;100.00;96180.66;1027478;28;21044;-51
2021/03/17 02:09:51;;;;;;;16.13;11.77;;;;;;;0.57;100.00;96185.88;1023657;29;20399;-51
2021/03/17 02:10:23;;;;;;;15.55;10.73;;;;;;;0.58;100.00;96183.25;1027634;28;20023;-51
2021/03/17 02:10:54;;;;;;;14.63;10.55;;;;;;;0.63;100.00;96180.53;1023629;28;20262;-52
2021/03/17 02:11:24;;;;;;;14.63;11.60;;;;;;;0.62;100.00;96191.75;1023530;29;20259;-52
2021/03/17 02:12:07;;;;;;;16.17;11.82;;;;;;;0.56;100.00;96181.56;1027644;28;20440;-51
2021/03/17 02:12:53;;;;;;;18.10;12.25;;;;;;;0.52;100.00;96180.81;1027416;28;20536;-51
2021/03/17 02:13:37;;;;;;;17.15;13.25;;;;;;;0.47;100.00;96185.28;1023511;28;20263;-50
2021/03/17 02:14:27;;;;;;;16.42;12.27;;;;;;;0.47;100.00;96181.81;1019665;28;20774;-52
2021/03/17 02:15:11;;;;;;;19.13;13.15;;;;;;;0.48;100.00;96184.38;1019717;29;20259;-51
2021/03/17 02:15:53;;;;;;;15.75;12.25;;;;;;;0.46;100.00;96183.56;1020076;29;20043;-51
2021/03/17 02:16:36;;;;;;;14.07;11.60;;;;;;;0.47;100.00;96182.69;1023585;29;20792;-50
2021/03/17 02:17:12;;;;;;;15.75;12.25;;;;;;;0.47;100.00;96177.53;1027464;28;20266;-51
2021/03/17 02:17:42;;;;;;;16.92;13.68;;;;;;;0.47;100.00;96181.81;1035475;28;20256;-51
2021/03/17 02:18:28;;;;;;;16.27;13.30;;;;;;;0.45;100.00;96179.31;1019756;29;20690;-52
2021/03/17 02:19:06;;;;;;;16.08;12.13;;;;;;;0.46;100.00;96175.84;1023609;29;20544;-51
2021/03/17 02:19:55;;;;;;;17.63;13.55;;;;;;;0.49;100.00;96183.50;1027552;28;20394;-51
2021/03/17 02:20:38;;;;;;;18.63;13.57;;;;;;;0.49;100.00;96173.19;1031589;28;20319;-51
2021/03/17 02:21:15;;;;;;;15.90;13.55;;;;;;;0.47;100.00;96180.13;1023672;28;20353;-50
2021/03/17 02:22:11;;;;;;;18.00;12.95;;;;;;;0.46;100.00;96172.41;1023579;29;20266;-51
2021/03/17 02:22:53;;;;;;;15.57;13.05;;;;;;;0.44;100.00;96180.19;1027571;28;20822;-51
2021/03/17 02:23:28;;;;;;;18.45;14.23;;;;;;;0.37;100.00;96168.34;1024642;28;20305;-50
2021/03/17 02:24:10;;;;;;;21.25;14.82;;;;;;;0.44;100.00;96177.59;1031376;28;20276;-51
2021/03/17 02:24:48;;;;;;;15.93;12.63;;;;;;;0.45;100.00;96173.28;1031627;28;20298;-51
2021/03/17 02:25:36;;;;;;;18.65;13.90;;;;;;;0.44;100.00;96181.94;1019669;29;20299;-51
2021/03/17 02:26:26;;;;;;;15.98;12.85;;;;;;;0.44;100.00;96180.19;1019534;29;20381;-51
2021/03/17 02:27:17;;;;;;;18.80;13.52;;;;;;;0.52;100.00;96172.25;1027528;28;20270;-51
2021/03/17 02:28:17;;;;;;;18.13;13.70;;;;;;;0.47;100.00;96174.09;1019696;29;20023;-51
2021/03/17 02:28:54;;;;;;;16.80;13.48;;;;;;;0.41;100.00;96182.00;1027587;28;20261;-51
2021/03/17 02:29:35;;;;;;;18.27;14.65;;;;;;;0.43;100.00;96180.22;1027579;28;20049;-51